createdAt,value
2023-02-08T00:01:15.806Z,10.04
2023-02-08T00:03:43.241Z,10.01
2023-02-08T00:06:10.676Z,10.00
2023-02-08T00:08:38.634Z,9.94
2023-02-08T00:11:06.977Z,9.98
2023-02-08T00:13:35.049Z,9.97
2023-02-08T00:16:05.375Z,9.94
2023-02-08T00:18:32.569Z,9.93
2023-02-08T00:20:59.616Z,9.90
2023-02-08T00:23:27.213Z,9.86
2023-02-08T00:25:54.327Z,9.89
2023-02-08T00:28:21.587Z,9.85
2023-02-08T00:30:48.985Z,9.90
2023-02-08T00:33:16.187Z,9.92
2023-02-08T00:35:43.236Z,9.93
2023-02-08T00:38:10.483Z,9.92
2023-02-08T00:40:38.629Z,9.95
2023-02-08T00:43:07.032Z,9.97
2023-02-08T00:45:35.061Z,9.97
2023-02-08T00:48:01.990Z,9.97
2023-02-08T00:50:29.018Z,9.91
2023-02-08T00:52:56.675Z,9.95
2023-02-08T00:55:25.982Z,9.98
2023-02-08T00:57:53.047Z,10.03
2023-02-08T01:00:20.413Z,10.01
2023-02-08T01:02:47.447Z,9.93
2023-02-08T01:05:14.658Z,9.98
2023-02-08T01:07:45.538Z,9.93
2023-02-08T01:10:13.047Z,9.96
2023-02-08T01:12:41.025Z,9.91
2023-02-08T01:15:11.259Z,9.95
2023-02-08T01:17:38.836Z,9.92
2023-02-08T01:20:06.386Z,9.99
2023-02-08T01:22:33.366Z,10.03
2023-02-08T01:25:01.324Z,10.07
2023-02-08T01:27:29.648Z,10.11
2023-02-08T01:29:56.884Z,10.11
2023-02-08T01:32:29.044Z,10.13
2023-02-08T01:34:56.054Z,10.12
2023-02-08T01:37:23.025Z,10.13
2023-02-08T01:39:50.016Z,10.08
2023-02-08T01:42:19.136Z,10.08
2023-02-08T01:45:21.278Z,9.96
2023-02-08T01:47:54.692Z,10.00
2023-02-08T01:50:26.492Z,10.01
2023-02-08T01:52:53.650Z,10.04
2023-02-08T01:55:31.132Z,10.01
2023-02-08T01:58:01.810Z,10.06
2023-02-08T02:00:29.114Z,10.04
2023-02-08T02:02:58.641Z,10.08
2023-02-08T02:05:30.350Z,10.08
2023-02-08T02:08:05.669Z,10.11
2023-02-08T02:10:35.411Z,10.06
2023-02-08T02:13:06.997Z,10.08
2023-02-08T02:15:34.542Z,10.14
2023-02-08T02:18:05.184Z,10.14
2023-02-08T02:20:59.573Z,10.15
2023-02-08T02:23:39.175Z,10.16
2023-02-08T02:26:41.838Z,10.04
2023-02-08T02:29:27.207Z,10.01
2023-02-08T02:32:12.780Z,10.02
2023-02-08T02:34:55.166Z,9.96
2023-02-08T02:37:49.307Z,9.96
2023-02-08T02:40:21.577Z,9.90
2023-02-08T02:43:38.804Z,9.91
2023-02-08T02:46:05.680Z,9.86
2023-02-08T02:48:47.489Z,9.81
2023-02-08T02:51:37.699Z,9.85
2023-02-08T02:54:14.480Z,9.83
2023-02-08T02:56:56.043Z,9.81
2023-02-08T02:59:23.672Z,9.82
2023-02-08T03:01:50.670Z,9.72
2023-02-08T03:04:39.046Z,9.77
2023-02-08T03:07:09.097Z,9.75
2023-02-08T03:09:54.168Z,9.77
2023-02-08T03:12:36.300Z,9.73
2023-02-08T03:15:15.877Z,9.72
2023-02-08T03:18:01.934Z,9.69
2023-02-08T03:20:33.493Z,9.70
2023-02-08T03:23:00.443Z,9.77
2023-02-08T03:25:35.782Z,9.80
2023-02-08T03:28:28.875Z,9.73
2023-02-08T03:31:32.718Z,9.81
2023-02-08T03:34:16.666Z,9.82
2023-02-08T03:36:51.355Z,9.78
2023-02-08T03:39:21.658Z,9.74
2023-02-08T03:41:53.145Z,9.73
2023-02-08T03:44:33.006Z,9.75
2023-02-08T03:47:13.724Z,9.73
2023-02-08T03:49:43.886Z,9.68
2023-02-08T03:52:11.481Z,9.68
2023-02-08T03:54:56.177Z,9.71
2023-02-08T03:57:27.801Z,9.65
2023-02-08T04:00:01.280Z,9.64
2023-02-08T04:02:34.099Z,9.62
2023-02-08T04:05:02.220Z,9.59
2023-02-08T04:07:29.218Z,9.56
2023-02-08T04:09:57.218Z,9.60
2023-02-08T04:12:24.139Z,9.56
2023-02-08T04:14:51.082Z,9.57
2023-02-08T04:17:18.060Z,9.54
2023-02-08T04:19:45.007Z,9.51
2023-02-08T04:22:12.056Z,9.57
2023-02-08T04:24:39.136Z,9.51
2023-02-08T04:27:06.216Z,9.49
2023-02-08T04:29:33.240Z,9.49
2023-02-08T04:32:00.607Z,9.43
2023-02-08T04:34:27.677Z,9.49
2023-02-08T04:36:54.612Z,9.49
2023-02-08T04:39:21.660Z,9.53
2023-02-08T04:41:48.707Z,9.52
2023-02-08T04:44:15.728Z,9.50
2023-02-08T04:46:42.724Z,9.52
2023-02-08T04:49:09.702Z,9.52
2023-02-08T04:51:36.863Z,9.56
2023-02-08T04:54:03.956Z,9.57
2023-02-08T04:56:33.640Z,9.55
2023-02-08T04:59:01.176Z,9.53
2023-02-08T05:01:28.403Z,9.54
2023-02-08T05:03:55.549Z,9.55
2023-02-08T05:06:25.281Z,9.57
2023-02-08T05:08:52.609Z,9.57
2023-02-08T05:11:24.928Z,9.60
2023-02-08T05:13:52.228Z,9.65
2023-02-08T05:16:19.342Z,9.65
2023-02-08T05:18:46.807Z,9.62
2023-02-08T05:21:13.845Z,9.63
2023-02-08T05:23:41.991Z,9.60
2023-02-08T05:26:11.568Z,9.58
2023-02-08T05:28:38.619Z,9.62
2023-02-08T05:31:22.051Z,9.64
2023-02-08T05:33:51.628Z,9.62
2023-02-08T05:36:19.830Z,9.68
2023-02-08T05:38:47.388Z,9.69
2023-02-08T05:41:14.838Z,9.73
2023-02-08T05:43:42.050Z,9.77
2023-02-08T05:46:09.336Z,9.81
2023-02-08T05:48:36.308Z,9.85
2023-02-08T05:51:03.822Z,9.85
2023-02-08T05:53:33.349Z,9.90
2023-02-08T05:56:00.786Z,9.82
2023-02-08T05:58:28.410Z,9.85
2023-02-08T06:00:55.470Z,9.86
2023-02-08T06:03:23.124Z,9.86
2023-02-08T06:05:50.318Z,9.85
2023-02-08T06:08:17.636Z,9.82
2023-02-08T06:10:46.485Z,9.83
2023-02-08T06:13:13.628Z,9.75
2023-02-08T06:15:40.601Z,9.80
2023-02-08T06:18:09.603Z,9.73
2023-02-08T06:20:38.446Z,9.68
2023-02-08T06:23:05.688Z,9.70
2023-02-08T06:25:32.608Z,9.59
2023-02-08T06:27:59.620Z,9.66
2023-02-08T06:30:26.618Z,9.72
2023-02-08T06:32:53.614Z,9.70
2023-02-08T06:35:20.660Z,9.70
2023-02-08T06:37:47.545Z,9.70
2023-02-08T06:40:14.476Z,9.68
2023-02-08T06:42:43.037Z,9.69
2023-02-08T06:45:12.613Z,9.68
2023-02-08T06:47:40.758Z,9.62
2023-02-08T06:50:08.536Z,9.61
2023-02-08T06:52:35.537Z,9.59
2023-02-08T06:55:02.499Z,9.56
2023-02-08T06:57:29.860Z,9.61
2023-02-08T06:59:56.730Z,9.49
2023-02-08T07:02:23.847Z,9.46
2023-02-08T07:04:51.305Z,9.45
2023-02-08T07:07:19.199Z,9.45
2023-02-08T07:09:46.269Z,9.43
2023-02-08T07:12:13.253Z,9.46
2023-02-08T07:14:43.262Z,9.51
2023-02-08T07:17:11.158Z,9.52
2023-02-08T07:19:39.279Z,9.52
2023-02-08T07:22:09.413Z,9.50
2023-02-08T07:24:38.272Z,9.57
2023-02-08T07:27:06.865Z,9.61
2023-02-08T07:29:34.968Z,9.58
2023-02-08T07:32:03.290Z,9.63
2023-02-08T07:34:33.095Z,9.66
2023-02-08T07:37:00.105Z,9.66
2023-02-08T07:39:27.302Z,9.69
2023-02-08T07:41:54.508Z,9.70
2023-02-08T07:44:22.700Z,9.77
2023-02-08T07:46:49.677Z,9.80
2023-02-08T07:49:16.598Z,9.84
2023-02-08T07:51:43.754Z,9.87
2023-02-08T07:54:10.734Z,9.92
2023-02-08T07:56:37.754Z,9.97
2023-02-08T07:59:04.927Z,10.23
2023-02-08T08:01:31.874Z,10.32
2023-02-08T08:03:58.926Z,10.85
2023-02-08T08:06:26.397Z,10.83
2023-02-08T08:08:53.847Z,10.83
2023-02-08T08:11:23.041Z,10.80
2023-02-08T08:13:50.893Z,10.81
2023-02-08T08:16:19.281Z,10.79
2023-02-08T08:18:47.253Z,10.82
2023-02-08T08:21:15.415Z,10.81
2023-02-08T08:23:42.845Z,10.91
2023-02-08T08:26:11.917Z,10.97
2023-02-08T08:28:38.873Z,11.03
2023-02-08T08:31:18.376Z,12.31
2023-02-08T08:33:45.792Z,12.77
2023-02-08T08:36:13.273Z,12.70
2023-02-08T08:38:41.176Z,12.76
2023-02-08T08:41:14.945Z,12.56
2023-02-08T08:43:42.104Z,12.19
2023-02-08T08:46:10.166Z,12.04
2023-02-08T08:48:38.878Z,11.89
2023-02-08T08:51:07.124Z,11.57
2023-02-08T08:53:35.216Z,11.48
2023-02-08T08:56:02.382Z,11.41
2023-02-08T08:58:29.686Z,11.43
2023-02-08T09:01:00.582Z,11.31
2023-02-08T09:03:28.992Z,11.19
2023-02-08T09:05:55.991Z,11.22
2023-02-08T09:08:23.016Z,11.25
2023-02-08T09:10:50.275Z,11.15
2023-02-08T09:13:19.948Z,11.18
2023-02-08T09:15:48.003Z,11.22
2023-02-08T09:18:15.891Z,11.40
2023-02-08T09:20:43.214Z,11.51
2023-02-08T09:23:10.348Z,11.68
2023-02-08T09:25:38.330Z,11.83
2023-02-08T09:28:05.619Z,12.08
2023-02-08T09:30:32.681Z,12.48
2023-02-08T09:32:59.584Z,14.19
2023-02-08T09:35:26.635Z,15.91
2023-02-08T09:37:55.866Z,18.11
2023-02-08T09:40:33.390Z,19.31
2023-02-08T09:43:25.821Z,20.22
2023-02-08T09:46:25.069Z,20.35
2023-02-08T09:48:53.216Z,21.62
2023-02-08T09:51:42.310Z,22.87
2023-02-08T09:54:18.843Z,23.75
2023-02-08T09:56:48.389Z,24.36
2023-02-08T09:59:35.541Z,25.32
2023-02-08T10:02:32.478Z,25.99
2023-02-08T10:05:10.550Z,25.75
2023-02-08T10:07:39.662Z,26.45
2023-02-08T10:10:14.249Z,27.26
2023-02-08T10:12:47.106Z,27.71
2023-02-08T10:15:34.734Z,27.87
2023-02-08T10:18:19.168Z,27.20
2023-02-08T10:20:54.985Z,26.65
2023-02-08T10:23:39.238Z,26.66
2023-02-08T10:26:21.943Z,23.95
2023-02-08T10:29:25.417Z,22.35
2023-02-08T10:32:17.691Z,22.54
2023-02-08T10:34:59.218Z,20.80
2023-02-08T10:37:34.765Z,19.76
2023-02-08T10:40:24.578Z,19.95
2023-02-08T10:43:00.898Z,19.07
2023-02-08T10:45:42.474Z,18.43
2023-02-08T10:48:15.883Z,18.83
2023-02-08T10:50:47.576Z,18.40
2023-02-08T10:53:17.565Z,18.43
2023-02-08T10:55:46.378Z,19.85
2023-02-08T10:58:20.159Z,19.25
2023-02-08T11:00:49.866Z,20.35
2023-02-08T11:03:21.176Z,20.95
2023-02-08T11:05:48.393Z,21.69
2023-02-08T11:08:28.009Z,22.06
2023-02-08T11:11:03.854Z,22.26
2023-02-08T11:14:07.472Z,22.54
2023-02-08T11:16:34.622Z,20.99
2023-02-08T11:19:07.923Z,19.73
2023-02-08T11:21:41.093Z,19.06
2023-02-08T11:24:30.236Z,17.97
2023-02-08T11:26:57.176Z,18.41
2023-02-08T11:29:29.602Z,18.28
2023-02-08T11:32:00.898Z,18.66
2023-02-08T11:34:32.748Z,18.84
2023-02-08T11:37:13.543Z,18.76
2023-02-08T11:39:44.502Z,18.20
2023-02-08T11:42:22.169Z,17.70
2023-02-08T11:44:50.039Z,17.04
2023-02-08T11:47:23.212Z,17.10
2023-02-08T11:49:56.390Z,16.63
2023-02-08T11:52:27.010Z,16.62
2023-02-08T11:54:55.944Z,16.50
2023-02-08T11:57:25.129Z,16.01
2023-02-08T12:00:16.479Z,15.86
2023-02-08T12:02:44.221Z,15.87
2023-02-08T12:05:18.844Z,15.72
2023-02-08T12:07:54.418Z,14.06
2023-02-08T12:10:47.869Z,14.10
2023-02-08T12:13:42.330Z,14.42
2023-02-08T12:16:14.961Z,13.91
2023-02-08T12:19:00.158Z,14.07
2023-02-08T12:21:52.250Z,13.57
2023-02-08T12:24:55.933Z,13.46
2023-02-08T12:27:27.650Z,13.21
2023-02-08T12:30:02.631Z,13.08
2023-02-08T12:33:01.133Z,12.90
2023-02-08T12:35:45.624Z,12.87
2023-02-08T12:39:07.809Z,12.97
2023-02-08T12:41:49.835Z,12.74
2023-02-08T12:44:35.080Z,12.40
2023-02-08T12:47:04.278Z,12.37
2023-02-08T12:49:53.081Z,12.27
2023-02-08T12:52:41.592Z,11.68
2023-02-08T12:55:28.523Z,11.78
2023-02-08T12:58:17.972Z,11.92
2023-02-08T13:00:47.249Z,12.10
2023-02-08T13:03:16.825Z,12.01
2023-02-08T13:06:01.778Z,11.97
2023-02-08T13:08:50.521Z,11.73
2023-02-08T13:11:26.623Z,11.91
2023-02-08T13:14:06.589Z,12.12
2023-02-08T13:16:44.211Z,12.12
2023-02-08T13:19:26.388Z,12.27
2023-02-08T13:21:55.639Z,12.03
2023-02-08T13:24:42.456Z,12.09
2023-02-08T13:27:22.222Z,12.30
2023-02-08T13:29:52.442Z,12.33
2023-02-08T13:32:43.535Z,12.08
2023-02-08T13:35:27.380Z,11.97
2023-02-08T13:38:40.769Z,12.00
2023-02-08T13:41:17.731Z,12.19
2023-02-08T13:43:51.437Z,12.11
2023-02-08T13:46:20.972Z,12.05
2023-02-08T13:48:55.152Z,12.08
2023-02-08T13:51:52.540Z,11.92
2023-02-08T13:54:19.700Z,12.05
2023-02-08T13:56:53.146Z,11.94
2023-02-08T13:59:42.010Z,11.80
2023-02-08T14:02:23.189Z,11.85
2023-02-08T14:05:00.334Z,12.09
2023-02-08T14:07:47.415Z,12.06
2023-02-08T14:10:23.034Z,12.03
2023-02-08T14:13:02.021Z,11.90
2023-02-08T14:15:34.502Z,12.18
2023-02-08T14:18:02.546Z,12.36
2023-02-08T14:20:41.322Z,12.30
2023-02-08T14:23:24.864Z,12.40
2023-02-08T14:25:55.468Z,12.38
2023-02-08T14:28:39.418Z,12.33
2023-02-08T14:31:09.646Z,12.29
2023-02-08T14:33:56.845Z,12.28
2023-02-08T14:36:33.631Z,12.22
2023-02-08T14:39:24.548Z,12.04
2023-02-08T14:42:01.810Z,12.05
2023-02-08T14:44:37.913Z,12.07
2023-02-08T14:47:12.421Z,11.94
2023-02-08T14:49:45.125Z,12.09
2023-02-08T14:52:21.392Z,11.90
2023-02-08T14:55:08.401Z,11.70
2023-02-08T14:57:36.906Z,11.49
2023-02-08T15:00:21.570Z,11.62
2023-02-08T15:02:49.461Z,11.48
2023-02-08T15:05:28.597Z,11.32
2023-02-08T15:07:58.107Z,11.27
2023-02-08T15:10:26.996Z,11.19
2023-02-08T15:12:57.811Z,11.24
2023-02-08T15:15:36.833Z,11.11
2023-02-08T15:18:06.271Z,11.19
2023-02-08T15:20:39.165Z,11.19
2023-02-08T15:23:19.587Z,11.32
2023-02-08T15:25:57.589Z,11.14
2023-02-08T15:28:29.224Z,11.15
2023-02-08T15:30:59.125Z,11.26
2023-02-08T15:33:26.655Z,11.29
2023-02-08T15:36:05.156Z,11.38
2023-02-08T15:38:34.495Z,11.41
2023-02-08T15:41:10.336Z,11.28
2023-02-08T15:43:39.011Z,11.35
2023-02-08T15:46:19.370Z,11.40
2023-02-08T15:48:47.287Z,11.45
2023-02-08T15:51:16.262Z,11.58
2023-02-08T15:53:50.169Z,11.66
2023-02-08T15:56:35.813Z,11.50
2023-02-08T15:59:06.102Z,11.56
2023-02-08T16:01:33.588Z,11.57
2023-02-08T16:04:12.711Z,11.63
2023-02-08T16:06:47.274Z,11.56
2023-02-08T16:09:20.254Z,11.49
2023-02-08T16:11:50.444Z,11.40
2023-02-08T16:14:24.221Z,11.46
2023-02-08T16:16:56.806Z,11.56
2023-02-08T16:19:31.175Z,11.54
2023-02-08T16:22:25.706Z,11.43
2023-02-08T16:24:53.671Z,11.37
2023-02-08T16:27:31.513Z,11.33
2023-02-08T16:29:59.752Z,11.48
2023-02-08T16:32:32.662Z,11.49
2023-02-08T16:35:01.557Z,11.55
2023-02-08T16:37:32.846Z,11.45
2023-02-08T16:40:06.948Z,11.45
2023-02-08T16:42:42.803Z,11.45
2023-02-08T16:45:17.187Z,11.40
2023-02-08T16:47:45.695Z,11.46
2023-02-08T16:50:25.454Z,11.45
2023-02-08T16:52:59.933Z,11.40
2023-02-08T16:55:30.126Z,11.45
2023-02-08T16:57:58.820Z,11.47
2023-02-08T17:00:35.425Z,11.48
2023-02-08T17:03:02.885Z,11.46
2023-02-08T17:05:38.632Z,11.43
2023-02-08T17:08:10.129Z,11.52
2023-02-08T17:10:37.368Z,11.36
2023-02-08T17:13:19.806Z,11.38
2023-02-08T17:15:50.660Z,11.46
2023-02-08T17:18:17.826Z,11.50
2023-02-08T17:20:45.417Z,11.56
2023-02-08T17:23:13.159Z,11.58
2023-02-08T17:25:40.523Z,11.63
2023-02-08T17:28:12.257Z,11.65
2023-02-08T17:30:42.099Z,11.60
2023-02-08T17:33:18.394Z,11.58
2023-02-08T17:35:47.904Z,11.60
2023-02-08T17:38:15.699Z,11.60
2023-02-08T17:40:43.752Z,11.63
2023-02-08T17:43:13.352Z,11.63
2023-02-08T17:45:43.291Z,11.51
2023-02-08T17:48:13.570Z,11.48
2023-02-08T17:50:44.131Z,11.38
2023-02-08T17:53:11.431Z,11.33
2023-02-08T17:55:43.186Z,11.15
2023-02-08T17:58:10.969Z,11.11
2023-02-08T18:00:38.934Z,11.20
2023-02-08T18:03:05.933Z,11.17
2023-02-08T18:05:32.896Z,11.07
2023-02-08T18:08:00.045Z,11.03
2023-02-08T18:10:28.507Z,11.03
2023-02-08T18:12:55.511Z,10.92
2023-02-08T18:15:24.215Z,10.72
2023-02-08T18:17:51.216Z,10.69
2023-02-08T18:20:18.500Z,10.62
2023-02-08T18:22:46.207Z,10.46
2023-02-08T18:25:14.596Z,10.45
2023-02-08T18:27:42.121Z,10.47
2023-02-08T18:30:10.401Z,10.22
2023-02-08T18:32:37.504Z,10.03
2023-02-08T18:35:07.380Z,9.82
2023-02-08T18:37:38.640Z,9.76
2023-02-08T18:40:08.409Z,9.77
2023-02-08T18:42:36.263Z,9.86
2023-02-08T18:45:05.342Z,9.85
2023-02-08T18:47:32.692Z,9.68
2023-02-08T18:49:59.608Z,9.75
2023-02-08T18:52:26.613Z,9.66
2023-02-08T18:54:53.646Z,9.71
2023-02-08T18:57:20.873Z,9.67
2023-02-08T18:59:48.030Z,9.77
2023-02-08T19:02:22.196Z,9.87
2023-02-08T19:04:49.771Z,9.80
2023-02-08T19:07:16.825Z,9.62
2023-02-08T19:09:44.300Z,9.66
2023-02-08T19:12:15.564Z,9.71
2023-02-08T19:14:44.060Z,9.57
2023-02-08T19:17:13.666Z,9.57
2023-02-08T19:19:41.743Z,9.57
2023-02-08T19:22:09.391Z,9.59
2023-02-08T19:24:36.546Z,9.43
2023-02-08T19:27:03.621Z,9.48
2023-02-08T19:29:32.744Z,9.63
2023-02-08T19:31:59.678Z,9.58
2023-02-08T19:34:26.679Z,9.54
2023-02-08T19:36:55.118Z,9.60
2023-02-08T19:39:25.091Z,9.73
2023-02-08T19:41:58.742Z,9.63
2023-02-08T19:44:27.678Z,9.69
2023-02-08T19:46:56.403Z,9.69
2023-02-08T19:49:26.082Z,9.74
2023-02-08T19:51:53.608Z,9.70
2023-02-08T19:54:20.783Z,9.54
2023-02-08T19:56:51.106Z,9.42
2023-02-08T19:59:24.465Z,9.28
2023-02-08T20:01:52.278Z,9.33
2023-02-08T20:04:19.440Z,9.39
2023-02-08T20:06:46.695Z,9.31
2023-02-08T20:09:15.857Z,9.28
2023-02-08T20:11:56.507Z,9.23
2023-02-08T20:14:24.936Z,9.22
2023-02-08T20:16:51.955Z,9.30
2023-02-08T20:19:18.940Z,9.28
2023-02-08T20:21:45.841Z,9.33
2023-02-08T20:24:12.909Z,9.26
2023-02-08T20:26:43.860Z,9.27
2023-02-08T20:29:12.045Z,9.35
2023-02-08T20:31:42.708Z,9.34
2023-02-08T20:34:13.501Z,9.28
2023-02-08T20:36:49.700Z,9.28
2023-02-08T20:39:20.827Z,9.40
2023-02-08T20:41:48.348Z,9.47
2023-02-08T20:44:17.912Z,9.49
2023-02-08T20:46:45.481Z,9.54
2023-02-08T20:49:15.432Z,9.49
2023-02-08T20:51:43.539Z,9.48
2023-02-08T20:54:11.597Z,9.60
2023-02-08T20:56:39.459Z,9.66
2023-02-08T20:59:14.203Z,9.71
2023-02-08T21:01:41.386Z,9.72
2023-02-08T21:04:08.460Z,9.70
2023-02-08T21:06:39.089Z,9.74
2023-02-08T21:09:11.766Z,9.80
2023-02-08T21:11:39.687Z,9.81
2023-02-08T21:14:08.310Z,9.87
2023-02-08T21:16:35.376Z,9.91
2023-02-08T21:19:02.482Z,9.92
2023-02-08T21:21:37.077Z,9.93
2023-02-08T21:24:04.315Z,9.93
2023-02-08T21:26:31.354Z,9.96
2023-02-08T21:28:58.973Z,10.02
2023-02-08T21:31:26.876Z,10.08
2023-02-08T21:33:54.099Z,10.17
2023-02-08T21:36:23.580Z,10.23
2023-02-08T21:38:50.884Z,10.26
2023-02-08T21:41:28.439Z,10.26
2023-02-08T21:43:58.898Z,10.30
2023-02-08T21:46:28.021Z,10.34
2023-02-08T21:49:13.898Z,10.28
2023-02-08T21:51:59.441Z,10.28
2023-02-08T21:54:46.695Z,10.31
2023-02-08T21:57:18.727Z,10.28
2023-02-08T21:59:47.841Z,10.30
2023-02-08T22:02:16.001Z,10.33
2023-02-08T22:04:46.831Z,10.35
2023-02-08T22:07:14.091Z,10.35
2023-02-08T22:09:42.140Z,10.35
2023-02-08T22:12:15.177Z,10.34
2023-02-08T22:14:42.469Z,10.32
2023-02-08T22:17:18.300Z,10.38
2023-02-08T22:19:45.232Z,10.39
2023-02-08T22:22:12.307Z,10.39
2023-02-08T22:24:39.317Z,10.39
2023-02-08T22:27:06.291Z,10.39
2023-02-08T22:29:36.677Z,10.38
2023-02-08T22:32:04.308Z,10.40
2023-02-08T22:34:31.383Z,10.38
2023-02-08T22:36:58.410Z,10.36
2023-02-08T22:39:25.333Z,10.38
2023-02-08T22:41:52.227Z,10.26
2023-02-08T22:44:19.285Z,10.21
2023-02-08T22:46:46.256Z,10.21
2023-02-08T22:49:13.207Z,10.24
2023-02-08T22:51:40.254Z,10.28
2023-02-08T22:54:07.141Z,10.27
2023-02-08T22:56:34.468Z,10.25
2023-02-08T22:59:01.568Z,10.28
2023-02-08T23:01:31.172Z,10.23
2023-02-08T23:04:00.462Z,10.24
2023-02-08T23:06:27.529Z,10.12
2023-02-08T23:08:55.237Z,10.18
2023-02-08T23:11:23.270Z,10.17
2023-02-08T23:13:50.694Z,10.15
2023-02-08T23:16:19.549Z,10.14
2023-02-08T23:18:47.114Z,10.12
2023-02-08T23:21:19.833Z,10.15
2023-02-08T23:23:48.465Z,10.14
2023-02-08T23:26:19.629Z,10.12
2023-02-08T23:28:49.133Z,10.01
2023-02-08T23:31:16.711Z,9.97
2023-02-08T23:33:44.143Z,10.00
2023-02-08T23:36:14.173Z,10.01
2023-02-08T23:38:42.229Z,10.00
2023-02-08T23:41:14.730Z,9.97
2023-02-08T23:43:41.845Z,9.97
2023-02-08T23:46:17.899Z,9.92
2023-02-08T23:48:47.731Z,9.89
2023-02-08T23:51:16.899Z,9.94
2023-02-08T23:53:44.295Z,9.85
2023-02-08T23:56:25.575Z,9.87
2023-02-08T23:58:55.567Z,9.89
